sensor_id;sensor_type;location;lat;lon;timestamp;temperature;humidity
30572;DHT22;17348;50.948;10.696;2023-08-12T00:01:41;19.30;99.90
30572;DHT22;17348;50.948;10.696;2023-08-12T00:07:46;19.20;99.90
30572;DHT22;17348;50.948;10.696;2023-08-12T00:11:06;19.20;99.90
30572;DHT22;17348;50.948;10.696;2023-08-12T00:14:21;19.20;99.90
30572;DHT22;17348;50.948;10.696;2023-08-12T00:17:35;19.10;99.90
30572;DHT22;17348;50.948;10.696;2023-08-12T00:20:38;19.10;99.90
30572;DHT22;17348;50.948;10.696;2023-08-12T00:24:10;19.10;99.90
30572;DHT22;17348;50.948;10.696;2023-08-12T00:27:12;19.00;99.90
30572;DHT22;17348;50.948;10.696;2023-08-12T00:30:15;19.00;99.90
30572;DHT22;17348;50.948;10.696;2023-08-12T00:33:17;18.90;99.90
30572;DHT22;17348;50.948;10.696;2023-08-12T00:36:20;18.90;99.90
30572;DHT22;17348;50.948;10.696;2023-08-12T00:39:36;18.90;99.90
30572;DHT22;17348;50.948;10.696;2023-08-12T00:42:47;18.80;99.90
30572;DHT22;17348;50.948;10.696;2023-08-12T00:45:49;18.80;99.90
30572;DHT22;17348;50.948;10.696;2023-08-12T00:48:52;18.70;99.90
30572;DHT22;17348;50.948;10.696;2023-08-12T00:51:54;18.70;99.90
30572;DHT22;17348;50.948;10.696;2023-08-12T00:54:58;18.60;99.90
30572;DHT22;17348;50.948;10.696;2023-08-12T00:58:02;18.60;99.90
30572;DHT22;17348;50.948;10.696;2023-08-12T01:01:04;18.60;99.90
30572;DHT22;17348;50.948;10.696;2023-08-12T01:04:07;18.60;99.90
30572;DHT22;17348;50.948;10.696;2023-08-12T01:07:09;18.50;99.90
30572;DHT22;17348;50.948;10.696;2023-08-12T01:10:33;18.50;99.90
30572;DHT22;17348;50.948;10.696;2023-08-12T01:13:42;18.50;99.90
30572;DHT22;17348;50.948;10.696;2023-08-12T01:16:47;18.40;99.90
30572;DHT22;17348;50.948;10.696;2023-08-12T01:19:51;18.30;99.90
30572;DHT22;17348;50.948;10.696;2023-08-12T01:23:12;18.30;99.90
30572;DHT22;17348;50.948;10.696;2023-08-12T01:26:33;18.30;99.90
30572;DHT22;17348;50.948;10.696;2023-08-12T01:29:54;18.30;99.90
30572;DHT22;17348;50.948;10.696;2023-08-12T01:33:01;18.30;99.90
30572;DHT22;17348;50.948;10.696;2023-08-12T01:36:09;18.30;99.90
30572;DHT22;17348;50.948;10.696;2023-08-12T01:39:16;18.30;99.90
30572;DHT22;17348;50.948;10.696;2023-08-12T01:42:20;18.20;99.90
30572;DHT22;17348;50.948;10.696;2023-08-12T01:45:23;18.30;99.90
30572;DHT22;17348;50.948;10.696;2023-08-12T01:48:28;18.20;99.90
30572;DHT22;17348;50.948;10.696;2023-08-12T01:51:31;18.30;99.90
30572;DHT22;17348;50.948;10.696;2023-08-12T01:54:35;18.30;99.90
30572;DHT22;17348;50.948;10.696;2023-08-12T01:57:37;18.40;99.90
30572;DHT22;17348;50.948;10.696;2023-08-12T02:00:39;18.50;99.90
30572;DHT22;17348;50.948;10.696;2023-08-12T02:03:41;18.50;99.90
30572;DHT22;17348;50.948;10.696;2023-08-12T02:06:44;18.50;99.90
30572;DHT22;17348;50.948;10.696;2023-08-12T02:09:48;18.60;99.90
30572;DHT22;17348;50.948;10.696;2023-08-12T02:12:50;18.60;99.90
30572;DHT22;17348;50.948;10.696;2023-08-12T02:15:52;18.60;99.90
30572;DHT22;17348;50.948;10.696;2023-08-12T02:18:55;18.70;99.90
30572;DHT22;17348;50.948;10.696;2023-08-12T02:21:57;18.70;99.90
30572;DHT22;17348;50.948;10.696;2023-08-12T02:25:01;18.70;99.90
30572;DHT22;17348;50.948;10.696;2023-08-12T02:28:04;18.80;99.90
30572;DHT22;17348;50.948;10.696;2023-08-12T02:31:06;18.70;99.90
30572;DHT22;17348;50.948;10.696;2023-08-12T02:34:09;18.70;99.90
30572;DHT22;17348;50.948;10.696;2023-08-12T02:37:33;18.70;99.90
30572;DHT22;17348;50.948;10.696;2023-08-12T02:40:51;18.70;99.90
30572;DHT22;17348;50.948;10.696;2023-08-12T02:44:14;18.70;99.90
30572;DHT22;17348;50.948;10.696;2023-08-12T02:47:30;18.70;99.90
30572;DHT22;17348;50.948;10.696;2023-08-12T02:50:32;18.70;99.90
30572;DHT22;17348;50.948;10.696;2023-08-12T02:53:59;18.70;99.90
30572;DHT22;17348;50.948;10.696;2023-08-12T02:57:04;18.70;99.90
30572;DHT22;17348;50.948;10.696;2023-08-12T03:00:08;18.70;99.90
30572;DHT22;17348;50.948;10.696;2023-08-12T03:03:16;18.70;99.90
30572;DHT22;17348;50.948;10.696;2023-08-12T03:06:28;18.70;99.90
30572;DHT22;17348;50.948;10.696;2023-08-12T03:09:31;18.60;99.90
30572;DHT22;17348;50.948;10.696;2023-08-12T03:12:49;18.60;99.90
30572;DHT22;17348;50.948;10.696;2023-08-12T03:15:51;18.60;99.90
30572;DHT22;17348;50.948;10.696;2023-08-12T03:18:53;18.60;99.90
30572;DHT22;17348;50.948;10.696;2023-08-12T03:21:56;18.60;99.90
30572;DHT22;17348;50.948;10.696;2023-08-12T03:24:58;18.60;99.90
30572;DHT22;17348;50.948;10.696;2023-08-12T03:28:02;18.60;99.90
30572;DHT22;17348;50.948;10.696;2023-08-12T03:31:04;18.60;99.90
30572;DHT22;17348;50.948;10.696;2023-08-12T03:34:08;18.60;99.90
30572;DHT22;17348;50.948;10.696;2023-08-12T03:37:10;18.60;99.90
30572;DHT22;17348;50.948;10.696;2023-08-12T03:40:28;18.60;99.90
30572;DHT22;17348;50.948;10.696;2023-08-12T03:44:02;18.60;99.90
30572;DHT22;17348;50.948;10.696;2023-08-12T03:47:04;18.60;99.90
30572;DHT22;17348;50.948;10.696;2023-08-12T03:50:07;18.60;99.90
30572;DHT22;17348;50.948;10.696;2023-08-12T03:53:10;18.50;99.90
30572;DHT22;17348;50.948;10.696;2023-08-12T03:56:13;18.50;99.90
30572;DHT22;17348;50.948;10.696;2023-08-12T03:59:19;18.50;99.90
30572;DHT22;17348;50.948;10.696;2023-08-12T04:02:21;18.50;99.90
30572;DHT22;17348;50.948;10.696;2023-08-12T04:05:24;18.60;99.90
30572;DHT22;17348;50.948;10.696;2023-08-12T04:08:31;18.60;99.90
30572;DHT22;17348;50.948;10.696;2023-08-12T04:11:34;18.50;99.90
30572;DHT22;17348;50.948;10.696;2023-08-12T04:14:38;18.60;99.90
30572;DHT22;17348;50.948;10.696;2023-08-12T04:17:41;18.60;99.90
30572;DHT22;17348;50.948;10.696;2023-08-12T04:20:45;18.60;99.90
30572;DHT22;17348;50.948;10.696;2023-08-12T04:23:48;18.60;99.90
30572;DHT22;17348;50.948;10.696;2023-08-12T04:26:50;18.70;99.90
30572;DHT22;17348;50.948;10.696;2023-08-12T04:29:54;18.70;99.90
30572;DHT22;17348;50.948;10.696;2023-08-12T04:32:56;18.70;99.90
30572;DHT22;17348;50.948;10.696;2023-08-12T04:35:58;18.80;99.90
30572;DHT22;17348;50.948;10.696;2023-08-12T04:39:01;18.80;99.90
30572;DHT22;17348;50.948;10.696;2023-08-12T04:42:03;18.90;99.90
30572;DHT22;17348;50.948;10.696;2023-08-12T04:45:08;18.90;99.90
30572;DHT22;17348;50.948;10.696;2023-08-12T04:48:44;18.90;99.90
30572;DHT22;17348;50.948;10.696;2023-08-12T04:52:12;18.90;99.90
30572;DHT22;17348;50.948;10.696;2023-08-12T04:55:15;18.90;99.90
30572;DHT22;17348;50.948;10.696;2023-08-12T04:58:30;18.90;99.90
30572;DHT22;17348;50.948;10.696;2023-08-12T05:01:34;18.90;99.90
30572;DHT22;17348;50.948;10.696;2023-08-12T05:04:37;18.90;99.90
30572;DHT22;17348;50.948;10.696;2023-08-12T05:07:39;19.00;99.90
30572;DHT22;17348;50.948;10.696;2023-08-12T05:10:41;19.10;99.90
30572;DHT22;17348;50.948;10.696;2023-08-12T05:13:44;19.10;99.90
30572;DHT22;17348;50.948;10.696;2023-08-12T05:16:47;19.20;99.90
30572;DHT22;17348;50.948;10.696;2023-08-12T05:19:50;19.30;99.90
30572;DHT22;17348;50.948;10.696;2023-08-12T05:23:11;19.30;99.90
30572;DHT22;17348;50.948;10.696;2023-08-12T05:26:13;19.40;99.90
30572;DHT22;17348;50.948;10.696;2023-08-12T05:29:15;19.40;99.90
30572;DHT22;17348;50.948;10.696;2023-08-12T05:32:19;19.50;99.90
30572;DHT22;17348;50.948;10.696;2023-08-12T05:35:40;19.50;99.90
30572;DHT22;17348;50.948;10.696;2023-08-12T05:38:42;19.50;99.90
30572;DHT22;17348;50.948;10.696;2023-08-12T05:41:44;19.40;99.90
30572;DHT22;17348;50.948;10.696;2023-08-12T05:44:47;19.40;99.90
30572;DHT22;17348;50.948;10.696;2023-08-12T05:47:51;19.20;99.90
30572;DHT22;17348;50.948;10.696;2023-08-12T05:50:53;19.20;99.90
30572;DHT22;17348;50.948;10.696;2023-08-12T05:53:56;19.20;99.90
30572;DHT22;17348;50.948;10.696;2023-08-12T05:56:58;19.10;99.90
30572;DHT22;17348;50.948;10.696;2023-08-12T06:00:00;19.10;99.90
30572;DHT22;17348;50.948;10.696;2023-08-12T06:03:04;19.00;99.90
30572;DHT22;17348;50.948;10.696;2023-08-12T06:06:07;19.00;99.90
30572;DHT22;17348;50.948;10.696;2023-08-12T06:09:09;19.00;99.90
30572;DHT22;17348;50.948;10.696;2023-08-12T06:12:11;19.10;99.90
30572;DHT22;17348;50.948;10.696;2023-08-12T06:15:13;19.20;99.90
30572;DHT22;17348;50.948;10.696;2023-08-12T06:18:17;19.30;99.90
30572;DHT22;17348;50.948;10.696;2023-08-12T06:21:20;19.30;99.90
30572;DHT22;17348;50.948;10.696;2023-08-12T06:24:22;19.40;99.90
30572;DHT22;17348;50.948;10.696;2023-08-12T06:27:24;19.50;99.90
30572;DHT22;17348;50.948;10.696;2023-08-12T06:30:27;19.60;99.90
30572;DHT22;17348;50.948;10.696;2023-08-12T06:33:30;19.60;99.90
30572;DHT22;17348;50.948;10.696;2023-08-12T06:36:33;19.70;99.90
30572;DHT22;17348;50.948;10.696;2023-08-12T06:39:35;19.70;99.90
30572;DHT22;17348;50.948;10.696;2023-08-12T06:42:38;19.80;99.90
30572;DHT22;17348;50.948;10.696;2023-08-12T06:45:40;19.80;99.90
30572;DHT22;17348;50.948;10.696;2023-08-12T06:48:44;19.90;99.90
30572;DHT22;17348;50.948;10.696;2023-08-12T06:51:46;20.00;99.90
30572;DHT22;17348;50.948;10.696;2023-08-12T06:54:48;20.10;99.90
30572;DHT22;17348;50.948;10.696;2023-08-12T06:57:51;20.20;99.90
30572;DHT22;17348;50.948;10.696;2023-08-12T07:00:54;20.30;99.90
30572;DHT22;17348;50.948;10.696;2023-08-12T07:03:57;20.30;99.90
30572;DHT22;17348;50.948;10.696;2023-08-12T07:07:00;20.30;99.90
30572;DHT22;17348;50.948;10.696;2023-08-12T07:10:02;20.40;99.90
30572;DHT22;17348;50.948;10.696;2023-08-12T07:13:05;20.50;99.90
30572;DHT22;17348;50.948;10.696;2023-08-12T07:16:07;20.50;99.90
30572;DHT22;17348;50.948;10.696;2023-08-12T07:19:11;20.60;99.90
30572;DHT22;17348;50.948;10.696;2023-08-12T07:22:13;20.70;99.90
30572;DHT22;17348;50.948;10.696;2023-08-12T07:25:19;20.90;99.90
30572;DHT22;17348;50.948;10.696;2023-08-12T07:28:21;21.00;99.90
30572;DHT22;17348;50.948;10.696;2023-08-12T07:31:24;21.10;99.90
30572;DHT22;17348;50.948;10.696;2023-08-12T07:34:27;21.20;99.90
30572;DHT22;17348;50.948;10.696;2023-08-12T07:37:30;21.30;99.90
30572;DHT22;17348;50.948;10.696;2023-08-12T07:40:32;21.40;99.90
30572;DHT22;17348;50.948;10.696;2023-08-12T07:43:34;21.30;99.90
30572;DHT22;17348;50.948;10.696;2023-08-12T07:46:37;21.10;99.90
30572;DHT22;17348;50.948;10.696;2023-08-12T07:49:40;20.90;99.90
30572;DHT22;17348;50.948;10.696;2023-08-12T07:52:43;20.80;99.90
30572;DHT22;17348;50.948;10.696;2023-08-12T07:55:45;20.70;99.90
30572;DHT22;17348;50.948;10.696;2023-08-12T07:58:48;20.70;99.90
30572;DHT22;17348;50.948;10.696;2023-08-12T08:01:50;20.70;99.90
30572;DHT22;17348;50.948;10.696;2023-08-12T08:04:53;20.70;99.90
30572;DHT22;17348;50.948;10.696;2023-08-12T08:07:56;20.60;99.90
30572;DHT22;17348;50.948;10.696;2023-08-12T08:10:58;20.60;99.90
30572;DHT22;17348;50.948;10.696;2023-08-12T08:14:01;20.60;99.90
30572;DHT22;17348;50.948;10.696;2023-08-12T08:17:03;20.60;99.90
30572;DHT22;17348;50.948;10.696;2023-08-12T08:20:08;20.60;99.90
30572;DHT22;17348;50.948;10.696;2023-08-12T08:23:11;20.70;99.90
30572;DHT22;17348;50.948;10.696;2023-08-12T08:26:13;20.80;99.90
30572;DHT22;17348;50.948;10.696;2023-08-12T08:29:17;20.90;99.90
30572;DHT22;17348;50.948;10.696;2023-08-12T08:32:19;21.20;99.90
30572;DHT22;17348;50.948;10.696;2023-08-12T08:35:23;21.50;99.90
30572;DHT22;17348;50.948;10.696;2023-08-12T08:38:25;21.80;99.90
30572;DHT22;17348;50.948;10.696;2023-08-12T08:41:30;22.00;99.90
30572;DHT22;17348;50.948;10.696;2023-08-12T08:44:33;22.30;99.90
30572;DHT22;17348;50.948;10.696;2023-08-12T08:47:36;22.50;99.90
30572;DHT22;17348;50.948;10.696;2023-08-12T08:50:40;22.80;99.90
30572;DHT22;17348;50.948;10.696;2023-08-12T08:53:43;23.10;99.90
30572;DHT22;17348;50.948;10.696;2023-08-12T08:56:45;23.30;99.90
30572;DHT22;17348;50.948;10.696;2023-08-12T08:59:50;23.50;99.90
30572;DHT22;17348;50.948;10.696;2023-08-12T09:02:53;23.60;99.90
30572;DHT22;17348;50.948;10.696;2023-08-12T09:05:59;23.80;99.90
30572;DHT22;17348;50.948;10.696;2023-08-12T09:09:02;23.90;99.90
30572;DHT22;17348;50.948;10.696;2023-08-12T09:12:07;24.00;99.90
30572;DHT22;17348;50.948;10.696;2023-08-12T09:15:10;24.10;99.90
30572;DHT22;17348;50.948;10.696;2023-08-12T09:18:12;24.10;99.90
30572;DHT22;17348;50.948;10.696;2023-08-12T09:21:16;24.20;99.90
30572;DHT22;17348;50.948;10.696;2023-08-12T09:24:23;24.20;99.90
30572;DHT22;17348;50.948;10.696;2023-08-12T09:27:26;24.30;99.90
30572;DHT22;17348;50.948;10.696;2023-08-12T09:30:29;24.50;99.90
30572;DHT22;17348;50.948;10.696;2023-08-12T09:33:33;24.70;99.90
30572;DHT22;17348;50.948;10.696;2023-08-12T09:36:41;24.80;99.90
30572;DHT22;17348;50.948;10.696;2023-08-12T09:39:44;25.10;99.90
30572;DHT22;17348;50.948;10.696;2023-08-12T09:42:47;25.20;99.90
30572;DHT22;17348;50.948;10.696;2023-08-12T09:45:50;25.50;99.90
30572;DHT22;17348;50.948;10.696;2023-08-12T09:48:52;25.60;99.90
30572;DHT22;17348;50.948;10.696;2023-08-12T09:51:56;25.90;99.90
30572;DHT22;17348;50.948;10.696;2023-08-12T09:55:00;26.20;99.90
30572;DHT22;17348;50.948;10.696;2023-08-12T09:58:06;26.60;99.90
30572;DHT22;17348;50.948;10.696;2023-08-12T10:01:12;26.90;99.90
30572;DHT22;17348;50.948;10.696;2023-08-12T10:04:17;27.30;99.90
30572;DHT22;17348;50.948;10.696;2023-08-12T10:07:21;27.60;99.90
30572;DHT22;17348;50.948;10.696;2023-08-12T10:10:25;27.90;99.90
30572;DHT22;17348;50.948;10.696;2023-08-12T10:13:28;27.90;99.90
30572;DHT22;17348;50.948;10.696;2023-08-12T10:16:31;28.00;99.90
30572;DHT22;17348;50.948;10.696;2023-08-12T10:19:35;28.10;99.90
30572;DHT22;17348;50.948;10.696;2023-08-12T10:22:40;28.30;99.90
30572;DHT22;17348;50.948;10.696;2023-08-12T10:25:44;28.50;99.90
30572;DHT22;17348;50.948;10.696;2023-08-12T10:28:48;28.70;99.90
30572;DHT22;17348;50.948;10.696;2023-08-12T10:31:51;28.90;99.90
30572;DHT22;17348;50.948;10.696;2023-08-12T10:34:56;29.00;99.90
30572;DHT22;17348;50.948;10.696;2023-08-12T10:38:00;29.20;99.90
30572;DHT22;17348;50.948;10.696;2023-08-12T10:41:16;29.30;99.90
30572;DHT22;17348;50.948;10.696;2023-08-12T10:44:20;29.30;99.90
30572;DHT22;17348;50.948;10.696;2023-08-12T10:47:24;29.20;99.90
30572;DHT22;17348;50.948;10.696;2023-08-12T10:50:26;29.10;99.90
30572;DHT22;17348;50.948;10.696;2023-08-12T10:53:32;29.00;99.90
30572;DHT22;17348;50.948;10.696;2023-08-12T11:00:16;29.10;99.90
30572;DHT22;17348;50.948;10.696;2023-08-12T11:03:19;29.00;99.90
30572;DHT22;17348;50.948;10.696;2023-08-12T11:06:21;29.10;99.90
30572;DHT22;17348;50.948;10.696;2023-08-12T11:09:27;29.20;99.90
30572;DHT22;17348;50.948;10.696;2023-08-12T11:12:30;29.10;99.90
30572;DHT22;17348;50.948;10.696;2023-08-12T11:15:34;29.10;99.90
30572;DHT22;17348;50.948;10.696;2023-08-12T11:18:37;29.00;99.90
30572;DHT22;17348;50.948;10.696;2023-08-12T11:21:41;28.90;99.90
30572;DHT22;17348;50.948;10.696;2023-08-12T11:24:47;29.00;99.90
30572;DHT22;17348;50.948;10.696;2023-08-12T11:27:50;29.20;99.90
30572;DHT22;17348;50.948;10.696;2023-08-12T11:30:52;29.10;99.90
30572;DHT22;17348;50.948;10.696;2023-08-12T11:33:55;29.00;99.90
30572;DHT22;17348;50.948;10.696;2023-08-12T11:36:58;29.10;99.90
30572;DHT22;17348;50.948;10.696;2023-08-12T11:40:03;29.20;99.90
30572;DHT22;17348;50.948;10.696;2023-08-12T11:43:06;29.30;99.90
30572;DHT22;17348;50.948;10.696;2023-08-12T11:46:08;29.20;99.90
30572;DHT22;17348;50.948;10.696;2023-08-12T11:49:11;29.30;99.90
30572;DHT22;17348;50.948;10.696;2023-08-12T11:52:13;29.10;99.90
30572;DHT22;17348;50.948;10.696;2023-08-12T11:55:17;29.10;99.90
30572;DHT22;17348;50.948;10.696;2023-08-12T11:58:20;29.10;99.90
30572;DHT22;17348;50.948;10.696;2023-08-12T12:01:24;29.30;99.90
30572;DHT22;17348;50.948;10.696;2023-08-12T12:04:27;29.60;99.90
30572;DHT22;17348;50.948;10.696;2023-08-12T12:07:29;29.70;99.90
30572;DHT22;17348;50.948;10.696;2023-08-12T12:10:34;29.70;99.90
30572;DHT22;17348;50.948;10.696;2023-08-12T12:13:37;29.70;99.90
30572;DHT22;17348;50.948;10.696;2023-08-12T12:16:40;29.60;99.90
30572;DHT22;17348;50.948;10.696;2023-08-12T12:19:43;29.50;99.90
30572;DHT22;17348;50.948;10.696;2023-08-12T12:22:46;29.30;99.90
30572;DHT22;17348;50.948;10.696;2023-08-12T12:25:57;29.20;99.90
30572;DHT22;17348;50.948;10.696;2023-08-12T12:28:59;29.30;99.90
30572;DHT22;17348;50.948;10.696;2023-08-12T12:32:02;29.40;99.90
30572;DHT22;17348;50.948;10.696;2023-08-12T12:35:05;29.30;99.90
30572;DHT22;17348;50.948;10.696;2023-08-12T12:38:08;29.40;99.90
30572;DHT22;17348;50.948;10.696;2023-08-12T12:41:12;29.50;99.90
30572;DHT22;17348;50.948;10.696;2023-08-12T12:44:15;29.50;99.90
30572;DHT22;17348;50.948;10.696;2023-08-12T12:47:19;29.50;99.90
30572;DHT22;17348;50.948;10.696;2023-08-12T12:50:22;29.50;99.90
30572;DHT22;17348;50.948;10.696;2023-08-12T12:53:24;29.50;99.90
30572;DHT22;17348;50.948;10.696;2023-08-12T12:56:28;29.30;99.90
30572;DHT22;17348;50.948;10.696;2023-08-12T12:59:30;29.10;99.90
30572;DHT22;17348;50.948;10.696;2023-08-12T13:02:33;28.90;99.90
30572;DHT22;17348;50.948;10.696;2023-08-12T13:05:35;28.70;99.90
30572;DHT22;17348;50.948;10.696;2023-08-12T13:08:37;28.60;99.90
30572;DHT22;17348;50.948;10.696;2023-08-12T13:11:41;28.50;99.90
30572;DHT22;17348;50.948;10.696;2023-08-12T13:14:43;28.20;99.90
30572;DHT22;17348;50.948;10.696;2023-08-12T13:17:45;28.00;99.90
30572;DHT22;17348;50.948;10.696;2023-08-12T13:20:48;27.90;99.90
30572;DHT22;17348;50.948;10.696;2023-08-12T13:23:50;27.80;99.90
30572;DHT22;17348;50.948;10.696;2023-08-12T13:26:54;27.60;99.90
30572;DHT22;17348;50.948;10.696;2023-08-12T13:29:56;27.20;99.90
30572;DHT22;17348;50.948;10.696;2023-08-12T13:32:58;26.80;99.90
30572;DHT22;17348;50.948;10.696;2023-08-12T13:36:01;26.40;99.90
30572;DHT22;17348;50.948;10.696;2023-08-12T13:39:03;26.00;99.90
30572;DHT22;17348;50.948;10.696;2023-08-12T13:42:07;25.80;99.90
30572;DHT22;17348;50.948;10.696;2023-08-12T13:45:11;25.40;99.90
30572;DHT22;17348;50.948;10.696;2023-08-12T13:48:14;25.20;99.90
30572;DHT22;17348;50.948;10.696;2023-08-12T13:51:16;25.10;99.90
30572;DHT22;17348;50.948;10.696;2023-08-12T13:54:19;24.90;99.90
30572;DHT22;17348;50.948;10.696;2023-08-12T13:57:22;24.80;99.90
30572;DHT22;17348;50.948;10.696;2023-08-12T14:00:24;24.60;99.90
30572;DHT22;17348;50.948;10.696;2023-08-12T14:03:27;24.50;99.90
30572;DHT22;17348;50.948;10.696;2023-08-12T14:06:30;24.30;99.90
30572;DHT22;17348;50.948;10.696;2023-08-12T14:09:33;24.10;99.90
30572;DHT22;17348;50.948;10.696;2023-08-12T14:12:37;24.00;99.90
30572;DHT22;17348;50.948;10.696;2023-08-12T14:15:40;23.90;99.90
30572;DHT22;17348;50.948;10.696;2023-08-12T14:18:42;23.80;99.90
30572;DHT22;17348;50.948;10.696;2023-08-12T14:21:45;23.70;99.90
30572;DHT22;17348;50.948;10.696;2023-08-12T14:24:47;23.60;99.90
30572;DHT22;17348;50.948;10.696;2023-08-12T14:27:51;23.60;99.90
30572;DHT22;17348;50.948;10.696;2023-08-12T14:30:53;23.40;99.90
30572;DHT22;17348;50.948;10.696;2023-08-12T14:33:56;23.40;99.90
30572;DHT22;17348;50.948;10.696;2023-08-12T14:36:58;23.40;99.90
30572;DHT22;17348;50.948;10.696;2023-08-12T14:40:02;23.30;99.90
30572;DHT22;17348;50.948;10.696;2023-08-12T14:43:06;23.30;99.90
30572;DHT22;17348;50.948;10.696;2023-08-12T14:46:08;23.20;99.90
30572;DHT22;17348;50.948;10.696;2023-08-12T14:49:11;23.20;99.90
30572;DHT22;17348;50.948;10.696;2023-08-12T14:52:16;23.20;99.90
30572;DHT22;17348;50.948;10.696;2023-08-12T14:55:19;23.20;99.90
30572;DHT22;17348;50.948;10.696;2023-08-12T14:58:23;23.20;99.90
30572;DHT22;17348;50.948;10.696;2023-08-12T15:01:25;23.20;99.90
30572;DHT22;17348;50.948;10.696;2023-08-12T15:04:29;23.20;99.90
30572;DHT22;17348;50.948;10.696;2023-08-12T15:07:31;23.20;99.90
30572;DHT22;17348;50.948;10.696;2023-08-12T15:10:33;23.30;99.90
30572;DHT22;17348;50.948;10.696;2023-08-12T15:13:37;23.30;99.90
30572;DHT22;17348;50.948;10.696;2023-08-12T15:16:39;23.30;99.90
30572;DHT22;17348;50.948;10.696;2023-08-12T15:19:43;23.40;99.90
30572;DHT22;17348;50.948;10.696;2023-08-12T15:22:46;23.40;99.90
30572;DHT22;17348;50.948;10.696;2023-08-12T15:25:48;23.50;99.90
30572;DHT22;17348;50.948;10.696;2023-08-12T15:28:52;23.80;99.90
30572;DHT22;17348;50.948;10.696;2023-08-12T15:31:54;24.10;99.90
30572;DHT22;17348;50.948;10.696;2023-08-12T15:34:57;24.40;99.90
30572;DHT22;17348;50.948;10.696;2023-08-12T15:38:00;24.70;99.90
30572;DHT22;17348;50.948;10.696;2023-08-12T15:41:12;24.90;99.90
30572;DHT22;17348;50.948;10.696;2023-08-12T15:44:16;25.00;99.90
30572;DHT22;17348;50.948;10.696;2023-08-12T15:47:20;25.00;99.90
30572;DHT22;17348;50.948;10.696;2023-08-12T15:50:23;25.00;99.90
30572;DHT22;17348;50.948;10.696;2023-08-12T15:53:25;25.00;99.90
30572;DHT22;17348;50.948;10.696;2023-08-12T15:56:27;24.90;99.90
30572;DHT22;17348;50.948;10.696;2023-08-12T15:59:31;24.90;99.90
30572;DHT22;17348;50.948;10.696;2023-08-12T16:02:33;24.80;99.90
30572;DHT22;17348;50.948;10.696;2023-08-12T16:05:36;24.90;99.90
30572;DHT22;17348;50.948;10.696;2023-08-12T16:08:38;25.00;99.90
30572;DHT22;17348;50.948;10.696;2023-08-12T16:11:41;25.10;99.90
30572;DHT22;17348;50.948;10.696;2023-08-12T16:14:45;25.10;99.90
30572;DHT22;17348;50.948;10.696;2023-08-12T16:17:47;24.90;99.90
30572;DHT22;17348;50.948;10.696;2023-08-12T16:20:49;24.70;99.90
30572;DHT22;17348;50.948;10.696;2023-08-12T16:23:52;24.50;99.90
30572;DHT22;17348;50.948;10.696;2023-08-12T16:26:55;24.50;99.90
30572;DHT22;17348;50.948;10.696;2023-08-12T16:30:00;24.40;99.90
30572;DHT22;17348;50.948;10.696;2023-08-12T16:33:04;24.30;99.90
30572;DHT22;17348;50.948;10.696;2023-08-12T16:36:06;24.30;99.90
30572;DHT22;17348;50.948;10.696;2023-08-12T16:39:08;24.10;99.90
30572;DHT22;17348;50.948;10.696;2023-08-12T16:42:11;24.10;99.90
30572;DHT22;17348;50.948;10.696;2023-08-12T16:45:15;24.10;99.90
30572;DHT22;17348;50.948;10.696;2023-08-12T16:48:17;23.90;99.90
30572;DHT22;17348;50.948;10.696;2023-08-12T16:51:19;23.70;99.90
30572;DHT22;17348;50.948;10.696;2023-08-12T16:54:22;23.70;99.90
30572;DHT22;17348;50.948;10.696;2023-08-12T16:57:24;23.70;99.90
30572;DHT22;17348;50.948;10.696;2023-08-12T17:00:28;23.70;99.90
30572;DHT22;17348;50.948;10.696;2023-08-12T17:03:30;23.80;99.90
30572;DHT22;17348;50.948;10.696;2023-08-12T17:06:33;24.00;99.90
30572;DHT22;17348;50.948;10.696;2023-08-12T17:09:35;24.10;99.90
30572;DHT22;17348;50.948;10.696;2023-08-12T17:12:37;24.20;99.90
30572;DHT22;17348;50.948;10.696;2023-08-12T17:15:41;24.30;99.90
30572;DHT22;17348;50.948;10.696;2023-08-12T17:18:44;24.30;99.90
30572;DHT22;17348;50.948;10.696;2023-08-12T17:21:46;24.20;99.90
30572;DHT22;17348;50.948;10.696;2023-08-12T17:24:48;24.10;99.90
30572;DHT22;17348;50.948;10.696;2023-08-12T17:27:51;24.10;99.90
30572;DHT22;17348;50.948;10.696;2023-08-12T17:30:54;24.10;99.90
30572;DHT22;17348;50.948;10.696;2023-08-12T17:33:57;24.10;99.90
30572;DHT22;17348;50.948;10.696;2023-08-12T17:36:59;24.00;99.90
30572;DHT22;17348;50.948;10.696;2023-08-12T17:40:02;24.00;99.90
30572;DHT22;17348;50.948;10.696;2023-08-12T17:43:05;24.00;99.90
30572;DHT22;17348;50.948;10.696;2023-08-12T17:46:09;24.00;99.90
30572;DHT22;17348;50.948;10.696;2023-08-12T17:49:13;24.00;99.90
30572;DHT22;17348;50.948;10.696;2023-08-12T17:52:16;23.80;99.90
30572;DHT22;17348;50.948;10.696;2023-08-12T17:55:18;23.80;99.90
30572;DHT22;17348;50.948;10.696;2023-08-12T17:58:21;23.80;99.90
30572;DHT22;17348;50.948;10.696;2023-08-12T18:01:24;23.70;99.90
30572;DHT22;17348;50.948;10.696;2023-08-12T18:04:27;23.60;99.90
30572;DHT22;17348;50.948;10.696;2023-08-12T18:07:29;23.50;99.90
30572;DHT22;17348;50.948;10.696;2023-08-12T18:10:40;23.50;99.90
30572;DHT22;17348;50.948;10.696;2023-08-12T18:13:42;23.40;99.90
30572;DHT22;17348;50.948;10.696;2023-08-12T18:16:46;23.30;99.90
30572;DHT22;17348;50.948;10.696;2023-08-12T18:19:48;23.20;99.90
30572;DHT22;17348;50.948;10.696;2023-08-12T18:22:51;23.10;99.90
30572;DHT22;17348;50.948;10.696;2023-08-12T18:25:53;23.10;99.90
30572;DHT22;17348;50.948;10.696;2023-08-12T18:28:55;23.00;99.90
30572;DHT22;17348;50.948;10.696;2023-08-12T18:32:02;22.90;99.90
30572;DHT22;17348;50.948;10.696;2023-08-12T18:35:05;22.80;99.90
30572;DHT22;17348;50.948;10.696;2023-08-12T18:38:07;22.80;99.90
30572;DHT22;17348;50.948;10.696;2023-08-12T18:41:09;22.70;99.90
30572;DHT22;17348;50.948;10.696;2023-08-12T18:44:13;22.60;99.90
30572;DHT22;17348;50.948;10.696;2023-08-12T18:47:17;22.50;99.90
30572;DHT22;17348;50.948;10.696;2023-08-12T18:50:19;22.40;99.90
30572;DHT22;17348;50.948;10.696;2023-08-12T18:53:22;22.40;99.90
30572;DHT22;17348;50.948;10.696;2023-08-12T18:56:24;22.40;99.90
30572;DHT22;17348;50.948;10.696;2023-08-12T18:59:27;22.40;99.90
30572;DHT22;17348;50.948;10.696;2023-08-12T19:02:31;22.40;99.90
30572;DHT22;17348;50.948;10.696;2023-08-12T19:05:56;22.30;99.90
30572;DHT22;17348;50.948;10.696;2023-08-12T19:08:59;22.30;99.90
30572;DHT22;17348;50.948;10.696;2023-08-12T19:12:01;22.30;99.90